sensor_id;sensor_type;location;lat;lon;timestamp;pressure;altitude;pressure_sealevel;temperature
67758;BMP180;54562;47.620;18.786;2023-03-05T00:02:29;98227.40;;;-0.10
67758;BMP180;54562;47.620;18.786;2023-03-05T00:05:37;98229.80;;;-0.20
67758;BMP180;54562;47.620;18.786;2023-03-05T00:08:46;98235.80;;;-0.20
67758;BMP180;54562;47.620;18.786;2023-03-05T00:11:54;98235.00;;;-0.20
67758;BMP180;54562;47.620;18.786;2023-03-05T00:15:01;98225.80;;;-0.30
67758;BMP180;54562;47.620;18.786;2023-03-05T00:18:09;98221.80;;;-0.40
67758;BMP180;54562;47.620;18.786;2023-03-05T00:21:24;98218.60;;;-0.40
67758;BMP180;54562;47.620;18.786;2023-03-05T00:24:32;98219.60;;;-0.50
67758;BMP180;54562;47.620;18.786;2023-03-05T00:27:40;98221.20;;;-0.48
67758;BMP180;54562;47.620;18.786;2023-03-05T00:30:48;98233.20;;;-0.40
67758;BMP180;54562;47.620;18.786;2023-03-05T00:33:58;98238.60;;;-0.32
67758;BMP180;54562;47.620;18.786;2023-03-05T00:37:07;98237.40;;;-0.30
67758;BMP180;54562;47.620;18.786;2023-03-05T00:40:15;98231.20;;;-0.32
67758;BMP180;54562;47.620;18.786;2023-03-05T00:43:23;98223.40;;;-0.40
67758;BMP180;54562;47.620;18.786;2023-03-05T00:46:31;98224.60;;;-0.40
67758;BMP180;54562;47.620;18.786;2023-03-05T00:49:39;98218.80;;;-0.50
67758;BMP180;54562;47.620;18.786;2023-03-05T00:52:47;98210.20;;;-0.50
67758;BMP180;54562;47.620;18.786;2023-03-05T00:55:55;98213.80;;;-0.50
67758;BMP180;54562;47.620;18.786;2023-03-05T00:59:03;98209.20;;;-0.60
67758;BMP180;54562;47.620;18.786;2023-03-05T01:02:12;98208.80;;;-0.60
67758;BMP180;54562;47.620;18.786;2023-03-05T01:05:20;98209.60;;;-0.60
67758;BMP180;54562;47.620;18.786;2023-03-05T01:08:29;98210.60;;;-0.62
67758;BMP180;54562;47.620;18.786;2023-03-05T01:11:38;98216.40;;;-0.70
67758;BMP180;54562;47.620;18.786;2023-03-05T01:14:46;98215.60;;;-0.70
67758;BMP180;54562;47.620;18.786;2023-03-05T01:17:54;98205.00;;;-0.74
67758;BMP180;54562;47.620;18.786;2023-03-05T01:21:02;98208.00;;;-0.80
67758;BMP180;54562;47.620;18.786;2023-03-05T01:24:11;98208.00;;;-0.80
67758;BMP180;54562;47.620;18.786;2023-03-05T01:27:18;98202.40;;;-0.80
67758;BMP180;54562;47.620;18.786;2023-03-05T01:30:26;98203.80;;;-0.80
67758;BMP180;54562;47.620;18.786;2023-03-05T01:33:34;98210.20;;;-0.80
67758;BMP180;54562;47.620;18.786;2023-03-05T01:36:44;98209.00;;;-0.80
67758;BMP180;54562;47.620;18.786;2023-03-05T01:39:52;98216.80;;;-0.76
67758;BMP180;54562;47.620;18.786;2023-03-05T01:43:07;98208.40;;;-0.70
67758;BMP180;54562;47.620;18.786;2023-03-05T01:46:34;98207.40;;;-0.70
67758;BMP180;54562;47.620;18.786;2023-03-05T01:49:43;98210.20;;;-0.70
67758;BMP180;54562;47.620;18.786;2023-03-05T01:52:58;98207.00;;;-0.60
67758;BMP180;54562;47.620;18.786;2023-03-05T01:56:09;98202.20;;;-0.52
67758;BMP180;54562;47.620;18.786;2023-03-05T01:59:18;98202.20;;;-0.40
67758;BMP180;54562;47.620;18.786;2023-03-05T02:02:29;98204.80;;;-0.22
67758;BMP180;54562;47.620;18.786;2023-03-05T02:05:40;98203.00;;;-0.12
67758;BMP180;54562;47.620;18.786;2023-03-05T02:08:49;98204.80;;;-0.02
67758;BMP180;54562;47.620;18.786;2023-03-05T02:11:57;98207.40;;;0.10
67758;BMP180;54562;47.620;18.786;2023-03-05T02:15:08;98205.20;;;0.10
67758;BMP180;54562;47.620;18.786;2023-03-05T02:18:16;98201.00;;;0.14
67758;BMP180;54562;47.620;18.786;2023-03-05T02:21:39;98199.00;;;0.20
67758;BMP180;54562;47.620;18.786;2023-03-05T02:24:48;98204.00;;;0.30
67758;BMP180;54562;47.620;18.786;2023-03-05T02:28:01;98200.80;;;0.30
67758;BMP180;54562;47.620;18.786;2023-03-05T02:31:18;98200.00;;;0.40
67758;BMP180;54562;47.620;18.786;2023-03-05T02:34:27;98205.60;;;0.50
67758;BMP180;54562;47.620;18.786;2023-03-05T02:37:34;98202.00;;;0.60
67758;BMP180;54562;47.620;18.786;2023-03-05T02:40:43;98203.00;;;0.60
67758;BMP180;54562;47.620;18.786;2023-03-05T02:43:51;98204.00;;;0.68
67758;BMP180;54562;47.620;18.786;2023-03-05T02:46:59;98203.60;;;0.70
67758;BMP180;54562;47.620;18.786;2023-03-05T02:50:11;98196.60;;;0.70
67758;BMP180;54562;47.620;18.786;2023-03-05T02:53:19;98196.00;;;0.72
67758;BMP180;54562;47.620;18.786;2023-03-05T02:56:28;98198.80;;;0.74
67758;BMP180;54562;47.620;18.786;2023-03-05T02:59:36;98189.60;;;0.80
67758;BMP180;54562;47.620;18.786;2023-03-05T03:02:44;98187.00;;;0.80
67758;BMP180;54562;47.620;18.786;2023-03-05T03:05:52;98187.60;;;0.80
67758;BMP180;54562;47.620;18.786;2023-03-05T03:09:01;98189.00;;;0.80
67758;BMP180;54562;47.620;18.786;2023-03-05T03:12:10;98189.60;;;0.80
67758;BMP180;54562;47.620;18.786;2023-03-05T03:15:19;98194.00;;;0.80
67758;BMP180;54562;47.620;18.786;2023-03-05T03:18:27;98185.20;;;0.80
67758;BMP180;54562;47.620;18.786;2023-03-05T03:21:35;98186.80;;;0.80
67758;BMP180;54562;47.620;18.786;2023-03-05T03:24:44;98187.00;;;0.80
67758;BMP180;54562;47.620;18.786;2023-03-05T03:27:51;98188.80;;;0.80
67758;BMP180;54562;47.620;18.786;2023-03-05T03:31:00;98184.00;;;0.86
67758;BMP180;54562;47.620;18.786;2023-03-05T03:34:07;98180.20;;;0.90
67758;BMP180;54562;47.620;18.786;2023-03-05T03:37:15;98178.60;;;0.90
67758;BMP180;54562;47.620;18.786;2023-03-05T03:40:24;98177.40;;;0.90
67758;BMP180;54562;47.620;18.786;2023-03-05T03:43:32;98169.20;;;0.90
67758;BMP180;54562;47.620;18.786;2023-03-05T03:46:41;98172.20;;;0.90
67758;BMP180;54562;47.620;18.786;2023-03-05T03:49:52;98172.80;;;0.90
67758;BMP180;54562;47.620;18.786;2023-03-05T03:53:00;98170.80;;;0.96
67758;BMP180;54562;47.620;18.786;2023-03-05T03:56:09;98165.80;;;0.96
67758;BMP180;54562;47.620;18.786;2023-03-05T03:59:17;98169.20;;;1.00
67758;BMP180;54562;47.620;18.786;2023-03-05T04:02:25;98166.60;;;1.00
67758;BMP180;54562;47.620;18.786;2023-03-05T04:05:33;98165.80;;;1.00
67758;BMP180;54562;47.620;18.786;2023-03-05T04:08:41;98173.80;;;1.00
67758;BMP180;54562;47.620;18.786;2023-03-05T04:11:49;98163.00;;;1.00
67758;BMP180;54562;47.620;18.786;2023-03-05T04:14:59;98166.40;;;1.10
67758;BMP180;54562;47.620;18.786;2023-03-05T04:18:08;98165.80;;;1.10
67758;BMP180;54562;47.620;18.786;2023-03-05T04:21:16;98165.80;;;1.10
67758;BMP180;54562;47.620;18.786;2023-03-05T04:24:24;98163.20;;;1.10
67758;BMP180;54562;47.620;18.786;2023-03-05T04:27:32;98166.00;;;1.20
67758;BMP180;54562;47.620;18.786;2023-03-05T04:30:42;98163.00;;;1.20
67758;BMP180;54562;47.620;18.786;2023-03-05T04:33:50;98158.00;;;1.20
67758;BMP180;54562;47.620;18.786;2023-03-05T04:36:57;98159.20;;;1.26
67758;BMP180;54562;47.620;18.786;2023-03-05T04:40:08;98156.20;;;1.30
67758;BMP180;54562;47.620;18.786;2023-03-05T04:43:16;98154.20;;;1.30
67758;BMP180;54562;47.620;18.786;2023-03-05T04:46:24;98152.20;;;1.30
67758;BMP180;54562;47.620;18.786;2023-03-05T04:49:32;98154.00;;;1.32
67758;BMP180;54562;47.620;18.786;2023-03-05T04:52:43;98153.80;;;1.40
67758;BMP180;54562;47.620;18.786;2023-03-05T04:55:55;98152.80;;;1.40
67758;BMP180;54562;47.620;18.786;2023-03-05T04:59:07;98152.60;;;1.40
67758;BMP180;54562;47.620;18.786;2023-03-05T05:02:14;98148.40;;;1.40
67758;BMP180;54562;47.620;18.786;2023-03-05T05:05:25;98150.80;;;1.48
67758;BMP180;54562;47.620;18.786;2023-03-05T05:08:33;98146.20;;;1.50
67758;BMP180;54562;47.620;18.786;2023-03-05T05:11:42;98147.60;;;1.50
67758;BMP180;54562;47.620;18.786;2023-03-05T05:14:50;98149.60;;;1.50
67758;BMP180;54562;47.620;18.786;2023-03-05T05:17:58;98142.80;;;1.50
67758;BMP180;54562;47.620;18.786;2023-03-05T05:21:12;98142.40;;;1.50
67758;BMP180;54562;47.620;18.786;2023-03-05T05:24:20;98135.60;;;1.50
67758;BMP180;54562;47.620;18.786;2023-03-05T05:27:29;98143.60;;;1.50
67758;BMP180;54562;47.620;18.786;2023-03-05T05:30:37;98150.00;;;1.52
67758;BMP180;54562;47.620;18.786;2023-03-05T05:33:45;98151.20;;;1.50
67758;BMP180;54562;47.620;18.786;2023-03-05T05:36:55;98161.20;;;1.60
67758;BMP180;54562;47.620;18.786;2023-03-05T05:40:03;98157.40;;;1.60
67758;BMP180;54562;47.620;18.786;2023-03-05T05:43:12;98161.60;;;1.60
67758;BMP180;54562;47.620;18.786;2023-03-05T05:46:21;98166.20;;;1.60
67758;BMP180;54562;47.620;18.786;2023-03-05T05:49:30;98168.20;;;1.60
67758;BMP180;54562;47.620;18.786;2023-03-05T05:52:37;98171.20;;;1.60
67758;BMP180;54562;47.620;18.786;2023-03-05T05:55:45;98171.60;;;1.64
67758;BMP180;54562;47.620;18.786;2023-03-05T05:58:53;98167.60;;;1.70
67758;BMP180;54562;47.620;18.786;2023-03-05T06:02:01;98171.20;;;1.70
67758;BMP180;54562;47.620;18.786;2023-03-05T06:05:12;98172.20;;;1.70
67758;BMP180;54562;47.620;18.786;2023-03-05T06:08:20;98165.00;;;1.70
67758;BMP180;54562;47.620;18.786;2023-03-05T06:11:28;98168.40;;;1.70
67758;BMP180;54562;47.620;18.786;2023-03-05T06:14:36;98170.40;;;1.70
67758;BMP180;54562;47.620;18.786;2023-03-05T06:17:44;98176.60;;;1.70
67758;BMP180;54562;47.620;18.786;2023-03-05T06:21:00;98175.00;;;1.80
67758;BMP180;54562;47.620;18.786;2023-03-05T06:24:09;98177.00;;;1.80
67758;BMP180;54562;47.620;18.786;2023-03-05T06:27:18;98179.60;;;1.80
67758;BMP180;54562;47.620;18.786;2023-03-05T06:30:25;98181.40;;;1.80
67758;BMP180;54562;47.620;18.786;2023-03-05T06:33:34;98173.40;;;1.80
67758;BMP180;54562;47.620;18.786;2023-03-05T06:36:42;98172.40;;;1.90
67758;BMP180;54562;47.620;18.786;2023-03-05T06:39:50;98178.20;;;1.90
67758;BMP180;54562;47.620;18.786;2023-03-05T06:42:58;98179.20;;;1.90
67758;BMP180;54562;47.620;18.786;2023-03-05T06:46:10;98180.00;;;1.98
67758;BMP180;54562;47.620;18.786;2023-03-05T06:49:18;98181.20;;;2.00
67758;BMP180;54562;47.620;18.786;2023-03-05T06:52:26;98185.40;;;2.00
67758;BMP180;54562;47.620;18.786;2023-03-05T06:55:36;98192.20;;;2.02
67758;BMP180;54562;47.620;18.786;2023-03-05T06:58:48;98197.20;;;2.10
67758;BMP180;54562;47.620;18.786;2023-03-05T07:01:56;98193.00;;;2.10
67758;BMP180;54562;47.620;18.786;2023-03-05T07:05:05;98193.60;;;2.12
67758;BMP180;54562;47.620;18.786;2023-03-05T07:08:13;98193.20;;;2.20
67758;BMP180;54562;47.620;18.786;2023-03-05T07:11:22;98191.40;;;2.20
67758;BMP180;54562;47.620;18.786;2023-03-05T07:14:33;98189.40;;;2.20
67758;BMP180;54562;47.620;18.786;2023-03-05T07:17:41;98188.60;;;2.28
67758;BMP180;54562;47.620;18.786;2023-03-05T07:20:49;98189.40;;;2.30
67758;BMP180;54562;47.620;18.786;2023-03-05T07:23:59;98191.20;;;2.30
67758;BMP180;54562;47.620;18.786;2023-03-05T07:27:08;98196.20;;;2.30
67758;BMP180;54562;47.620;18.786;2023-03-05T07:30:17;98196.60;;;2.32
67758;BMP180;54562;47.620;18.786;2023-03-05T07:33:28;98193.00;;;2.40
67758;BMP180;54562;47.620;18.786;2023-03-05T07:36:36;98190.60;;;2.40
67758;BMP180;54562;47.620;18.786;2023-03-05T07:39:44;98188.00;;;2.40
67758;BMP180;54562;47.620;18.786;2023-03-05T07:42:53;98192.20;;;2.44
67758;BMP180;54562;47.620;18.786;2023-03-05T07:46:04;98189.00;;;2.46
67758;BMP180;54562;47.620;18.786;2023-03-05T07:49:13;98181.40;;;2.50
67758;BMP180;54562;47.620;18.786;2023-03-05T07:52:21;98180.00;;;2.50
67758;BMP180;54562;47.620;18.786;2023-03-05T07:55:28;98185.60;;;2.56
67758;BMP180;54562;47.620;18.786;2023-03-05T07:58:37;98192.80;;;2.60
67758;BMP180;54562;47.620;18.786;2023-03-05T08:01:45;98187.20;;;2.70
67758;BMP180;54562;47.620;18.786;2023-03-05T08:04:53;98179.60;;;2.70
67758;BMP180;54562;47.620;18.786;2023-03-05T08:08:01;98184.80;;;2.80
67758;BMP180;54562;47.620;18.786;2023-03-05T08:11:11;98181.20;;;2.90
67758;BMP180;54562;47.620;18.786;2023-03-05T08:14:19;98175.60;;;2.90
67758;BMP180;54562;47.620;18.786;2023-03-05T08:17:27;98179.20;;;3.00
67758;BMP180;54562;47.620;18.786;2023-03-05T08:20:38;98180.40;;;3.00
67758;BMP180;54562;47.620;18.786;2023-03-05T08:23:44;98177.80;;;3.00
67758;BMP180;54562;47.620;18.786;2023-03-05T08:26:52;98177.80;;;3.06
67758;BMP180;54562;47.620;18.786;2023-03-05T08:30:01;98172.20;;;3.10
67758;BMP180;54562;47.620;18.786;2023-03-05T08:33:09;98170.20;;;3.06
67758;BMP180;54562;47.620;18.786;2023-03-05T08:36:17;98171.00;;;3.10
67758;BMP180;54562;47.620;18.786;2023-03-05T08:39:25;98171.00;;;3.10
67758;BMP180;54562;47.620;18.786;2023-03-05T08:42:35;98170.40;;;3.10
67758;BMP180;54562;47.620;18.786;2023-03-05T08:45:43;98164.00;;;3.20
67758;BMP180;54562;47.620;18.786;2023-03-05T08:48:52;98165.20;;;3.30
67758;BMP180;54562;47.620;18.786;2023-03-05T08:52:00;98167.80;;;3.30
67758;BMP180;54562;47.620;18.786;2023-03-05T08:55:09;98166.80;;;3.40
67758;BMP180;54562;47.620;18.786;2023-03-05T08:58:17;98165.00;;;3.50
67758;BMP180;54562;47.620;18.786;2023-03-05T09:01:25;98163.00;;;3.60
67758;BMP180;54562;47.620;18.786;2023-03-05T09:04:33;98166.20;;;3.70
67758;BMP180;54562;47.620;18.786;2023-03-05T09:07:41;98159.80;;;3.80
67758;BMP180;54562;47.620;18.786;2023-03-05T09:10:49;98157.80;;;3.80
67758;BMP180;54562;47.620;18.786;2023-03-05T09:13:56;98161.60;;;3.90
67758;BMP180;54562;47.620;18.786;2023-03-05T09:17:04;98156.40;;;3.90
67758;BMP180;54562;47.620;18.786;2023-03-05T09:20:15;98159.80;;;3.90
67758;BMP180;54562;47.620;18.786;2023-03-05T09:23:24;98163.40;;;4.00
67758;BMP180;54562;47.620;18.786;2023-03-05T09:26:32;98157.80;;;4.00
67758;BMP180;54562;47.620;18.786;2023-03-05T09:29:40;98156.20;;;4.10
67758;BMP180;54562;47.620;18.786;2023-03-05T09:32:48;98155.00;;;4.10
67758;BMP180;54562;47.620;18.786;2023-03-05T09:35:56;98152.60;;;4.10
67758;BMP180;54562;47.620;18.786;2023-03-05T09:39:05;98147.40;;;4.10
67758;BMP180;54562;47.620;18.786;2023-03-05T09:42:40;98146.20;;;4.10
67758;BMP180;54562;47.620;18.786;2023-03-05T09:46:08;98157.60;;;4.10
67758;BMP180;54562;47.620;18.786;2023-03-05T09:49:31;98157.20;;;4.10
67758;BMP180;54562;47.620;18.786;2023-03-05T09:52:46;98150.40;;;4.10
67758;BMP180;54562;47.620;18.786;2023-03-05T09:55:59;98149.80;;;4.12
67758;BMP180;54562;47.620;18.786;2023-03-05T09:59:22;98153.20;;;4.20
67758;BMP180;54562;47.620;18.786;2023-03-05T10:02:38;98147.60;;;4.20
67758;BMP180;54562;47.620;18.786;2023-03-05T10:06:09;98143.20;;;4.20
67758;BMP180;54562;47.620;18.786;2023-03-05T10:09:36;98144.00;;;4.20
67758;BMP180;54562;47.620;18.786;2023-03-05T10:12:52;98133.20;;;4.20
67758;BMP180;54562;47.620;18.786;2023-03-05T10:16:27;98130.80;;;4.20
67758;BMP180;54562;47.620;18.786;2023-03-05T10:23:51;98122.60;;;4.22
67758;BMP180;54562;47.620;18.786;2023-03-05T10:27:10;98117.20;;;4.30
67758;BMP180;54562;47.620;18.786;2023-03-05T10:30:47;98120.40;;;4.30
67758;BMP180;54562;47.620;18.786;2023-03-05T10:34:18;98119.80;;;4.30
67758;BMP180;54562;47.620;18.786;2023-03-05T10:37:47;98126.20;;;4.30
67758;BMP180;54562;47.620;18.786;2023-03-05T10:41:01;98119.20;;;4.30
67758;BMP180;54562;47.620;18.786;2023-03-05T10:44:32;98116.60;;;4.30
67758;BMP180;54562;47.620;18.786;2023-03-05T10:47:50;98118.60;;;4.30
67758;BMP180;54562;47.620;18.786;2023-03-05T10:51:14;98117.40;;;4.30
67758;BMP180;54562;47.620;18.786;2023-03-05T10:54:30;98109.60;;;4.30
67758;BMP180;54562;47.620;18.786;2023-03-05T10:57:39;98110.60;;;4.40
67758;BMP180;54562;47.620;18.786;2023-03-05T11:01:04;98102.40;;;4.42
67758;BMP180;54562;47.620;18.786;2023-03-05T11:04:29;98098.00;;;4.50
67758;BMP180;54562;47.620;18.786;2023-03-05T11:07:41;98097.60;;;4.60
67758;BMP180;54562;47.620;18.786;2023-03-05T11:11:03;98091.80;;;4.56
67758;BMP180;54562;47.620;18.786;2023-03-05T11:14:26;98089.00;;;4.60
67758;BMP180;54562;47.620;18.786;2023-03-05T11:17:42;98089.20;;;4.60
67758;BMP180;54562;47.620;18.786;2023-03-05T11:20:50;98073.60;;;4.60
67758;BMP180;54562;47.620;18.786;2023-03-05T11:24:13;98073.00;;;4.56
67758;BMP180;54562;47.620;18.786;2023-03-05T11:27:35;98072.00;;;4.60
67758;BMP180;54562;47.620;18.786;2023-03-05T11:30:56;98065.00;;;4.60
67758;BMP180;54562;47.620;18.786;2023-03-05T11:34:08;98058.40;;;4.68
67758;BMP180;54562;47.620;18.786;2023-03-05T11:37:31;98058.20;;;4.74
67758;BMP180;54562;47.620;18.786;2023-03-05T11:40:39;98055.40;;;5.12
67758;BMP180;54562;47.620;18.786;2023-03-05T11:43:48;98052.20;;;5.60
67758;BMP180;54562;47.620;18.786;2023-03-05T11:47:01;98046.80;;;5.80
67758;BMP180;54562;47.620;18.786;2023-03-05T11:50:23;98051.20;;;6.00
67758;BMP180;54562;47.620;18.786;2023-03-05T11:53:34;98039.20;;;6.00
67758;BMP180;54562;47.620;18.786;2023-03-05T11:56:46;98037.20;;;6.00
67758;BMP180;54562;47.620;18.786;2023-03-05T11:59:58;98035.00;;;6.00
67758;BMP180;54562;47.620;18.786;2023-03-05T12:03:15;98032.00;;;5.88
67758;BMP180;54562;47.620;18.786;2023-03-05T12:06:31;98021.60;;;5.76
67758;BMP180;54562;47.620;18.786;2023-03-05T12:09:42;98025.00;;;5.70
67758;BMP180;54562;47.620;18.786;2023-03-05T12:12:58;98017.60;;;5.74
67758;BMP180;54562;47.620;18.786;2023-03-05T12:16:16;98013.20;;;5.80
67758;BMP180;54562;47.620;18.786;2023-03-05T12:19:44;97998.00;;;5.90
67758;BMP180;54562;47.620;18.786;2023-03-05T12:22:53;97996.60;;;6.06
67758;BMP180;54562;47.620;18.786;2023-03-05T12:26:02;97991.00;;;6.10
67758;BMP180;54562;47.620;18.786;2023-03-05T12:29:37;97988.20;;;6.10
67758;BMP180;54562;47.620;18.786;2023-03-05T12:32:56;97982.00;;;6.10
67758;BMP180;54562;47.620;18.786;2023-03-05T12:36:38;97979.80;;;6.10
67758;BMP180;54562;47.620;18.786;2023-03-05T12:40:00;97970.40;;;6.20
67758;BMP180;54562;47.620;18.786;2023-03-05T12:43:30;97972.20;;;6.50
67758;BMP180;54562;47.620;18.786;2023-03-05T12:46:40;97971.40;;;6.60
67758;BMP180;54562;47.620;18.786;2023-03-05T12:49:50;97969.60;;;6.64
67758;BMP180;54562;47.620;18.786;2023-03-05T12:53:09;97974.40;;;6.60
67758;BMP180;54562;47.620;18.786;2023-03-05T12:56:24;97971.20;;;6.42
67758;BMP180;54562;47.620;18.786;2023-03-05T12:59:42;97966.00;;;6.30
67758;BMP180;54562;47.620;18.786;2023-03-05T13:02:56;97965.60;;;6.20
67758;BMP180;54562;47.620;18.786;2023-03-05T13:06:19;97961.20;;;6.04
67758;BMP180;54562;47.620;18.786;2023-03-05T13:09:31;97958.00;;;5.90
67758;BMP180;54562;47.620;18.786;2023-03-05T13:12:51;97956.00;;;5.80
67758;BMP180;54562;47.620;18.786;2023-03-05T13:16:00;97957.60;;;5.74
67758;BMP180;54562;47.620;18.786;2023-03-05T13:19:18;97952.60;;;5.70
67758;BMP180;54562;47.620;18.786;2023-03-05T13:22:26;97951.40;;;5.60
67758;BMP180;54562;47.620;18.786;2023-03-05T13:25:35;97945.80;;;5.50
67758;BMP180;54562;47.620;18.786;2023-03-05T13:28:44;97947.40;;;5.42
67758;BMP180;54562;47.620;18.786;2023-03-05T13:31:56;97946.00;;;5.40
67758;BMP180;54562;47.620;18.786;2023-03-05T13:35:14;97959.80;;;5.30
67758;BMP180;54562;47.620;18.786;2023-03-05T13:38:33;97956.40;;;5.30
67758;BMP180;54562;47.620;18.786;2023-03-05T13:41:40;97949.40;;;5.20
67758;BMP180;54562;47.620;18.786;2023-03-05T13:44:58;97954.60;;;5.02
67758;BMP180;54562;47.620;18.786;2023-03-05T13:48:14;97959.80;;;4.90
67758;BMP180;54562;47.620;18.786;2023-03-05T13:51:29;97955.40;;;4.80
67758;BMP180;54562;47.620;18.786;2023-03-05T13:54:47;97952.60;;;4.72
67758;BMP180;54562;47.620;18.786;2023-03-05T13:57:55;97949.60;;;4.70
67758;BMP180;54562;47.620;18.786;2023-03-05T14:01:19;97956.60;;;4.60
67758;BMP180;54562;47.620;18.786;2023-03-05T14:04:33;97959.40;;;4.50
67758;BMP180;54562;47.620;18.786;2023-03-05T14:07:44;97950.80;;;4.40
67758;BMP180;54562;47.620;18.786;2023-03-05T14:10:55;97946.40;;;4.30
67758;BMP180;54562;47.620;18.786;2023-03-05T14:14:15;97938.40;;;4.24
67758;BMP180;54562;47.620;18.786;2023-03-05T14:17:41;97940.40;;;4.20
67758;BMP180;54562;47.620;18.786;2023-03-05T14:21:06;97947.60;;;4.14
67758;BMP180;54562;47.620;18.786;2023-03-05T14:24:24;97945.20;;;4.10
67758;BMP180;54562;47.620;18.786;2023-03-05T14:27:34;97941.00;;;4.10
67758;BMP180;54562;47.620;18.786;2023-03-05T14:30:47;97931.40;;;4.10
67758;BMP180;54562;47.620;18.786;2023-03-05T14:34:01;97915.60;;;4.02
67758;BMP180;54562;47.620;18.786;2023-03-05T14:37:23;97915.00;;;4.02
67758;BMP180;54562;47.620;18.786;2023-03-05T14:40:33;97917.00;;;4.02
67758;BMP180;54562;47.620;18.786;2023-03-05T14:43:41;97899.20;;;4.00
67758;BMP180;54562;47.620;18.786;2023-03-05T14:46:51;97898.40;;;4.00
67758;BMP180;54562;47.620;18.786;2023-03-05T14:49:57;97905.00;;;4.00
67758;BMP180;54562;47.620;18.786;2023-03-05T14:53:12;97909.60;;;4.08
67758;BMP180;54562;47.620;18.786;2023-03-05T14:56:26;97910.80;;;4.10
67758;BMP180;54562;47.620;18.786;2023-03-05T14:59:34;97909.80;;;4.10
67758;BMP180;54562;47.620;18.786;2023-03-05T15:02:42;97912.60;;;4.00
67758;BMP180;54562;47.620;18.786;2023-03-05T15:05:54;97911.20;;;4.00
67758;BMP180;54562;47.620;18.786;2023-03-05T15:09:04;97913.60;;;3.96
67758;BMP180;54562;47.620;18.786;2023-03-05T15:12:12;97919.40;;;3.90
67758;BMP180;54562;47.620;18.786;2023-03-05T15:15:22;97924.00;;;3.90
67758;BMP180;54562;47.620;18.786;2023-03-05T15:18:30;97910.80;;;3.90
67758;BMP180;54562;47.620;18.786;2023-03-05T15:21:38;97898.60;;;3.90
67758;BMP180;54562;47.620;18.786;2023-03-05T15:24:46;97910.20;;;3.94
67758;BMP180;54562;47.620;18.786;2023-03-05T15:27:55;97914.60;;;4.00
67758;BMP180;54562;47.620;18.786;2023-03-05T15:31:05;97912.40;;;4.00
67758;BMP180;54562;47.620;18.786;2023-03-05T15:34:14;97910.40;;;4.00
67758;BMP180;54562;47.620;18.786;2023-03-05T15:37:22;97909.80;;;3.92
67758;BMP180;54562;47.620;18.786;2023-03-05T15:40:33;97913.60;;;3.90
67758;BMP180;54562;47.620;18.786;2023-03-05T15:43:41;97920.80;;;3.90
67758;BMP180;54562;47.620;18.786;2023-03-05T15:46:49;97920.60;;;3.90
67758;BMP180;54562;47.620;18.786;2023-03-05T15:49:57;97929.80;;;3.80
67758;BMP180;54562;47.620;18.786;2023-03-05T15:53:05;97932.40;;;3.78
67758;BMP180;54562;47.620;18.786;2023-03-05T15:56:17;97926.60;;;3.70
67758;BMP180;54562;47.620;18.786;2023-03-05T15:59:26;97927.40;;;3.60
67758;BMP180;54562;47.620;18.786;2023-03-05T16:02:34;97923.80;;;3.56
67758;BMP180;54562;47.620;18.786;2023-03-05T16:05:42;97931.60;;;3.42
67758;BMP180;54562;47.620;18.786;2023-03-05T16:08:53;97927.00;;;3.40
67758;BMP180;54562;47.620;18.786;2023-03-05T16:12:03;97924.20;;;3.30
67758;BMP180;54562;47.620;18.786;2023-03-05T16:15:17;97923.00;;;3.20
67758;BMP180;54562;47.620;18.786;2023-03-05T16:18:26;97926.20;;;3.10
67758;BMP180;54562;47.620;18.786;2023-03-05T16:21:36;97927.00;;;3.02
67758;BMP180;54562;47.620;18.786;2023-03-05T16:24:47;97929.80;;;3.00
67758;BMP180;54562;47.620;18.786;2023-03-05T16:27:55;97932.60;;;2.94
67758;BMP180;54562;47.620;18.786;2023-03-05T16:31:04;97931.40;;;2.90
67758;BMP180;54562;47.620;18.786;2023-03-05T16:34:16;97927.40;;;2.90
67758;BMP180;54562;47.620;18.786;2023-03-05T16:37:25;97928.80;;;2.80
67758;BMP180;54562;47.620;18.786;2023-03-05T16:40:37;97929.00;;;2.80
67758;BMP180;54562;47.620;18.786;2023-03-05T16:44:05;97929.20;;;2.70
67758;BMP180;54562;47.620;18.786;2023-03-05T16:47:13;97924.20;;;2.68
67758;BMP180;54562;47.620;18.786;2023-03-05T16:50:22;97924.60;;;2.60
67758;BMP180;54562;47.620;18.786;2023-03-05T16:53:30;97926.80;;;2.60
67758;BMP180;54562;47.620;18.786;2023-03-05T16:56:38;97921.20;;;2.50
67758;BMP180;54562;47.620;18.786;2023-03-05T16:59:47;97924.80;;;2.50
67758;BMP180;54562;47.620;18.786;2023-03-05T17:02:54;97926.00;;;2.46
67758;BMP180;54562;47.620;18.786;2023-03-05T17:06:11;97930.00;;;2.40
67758;BMP180;54562;47.620;18.786;2023-03-05T17:09:22;97936.80;;;2.40
67758;BMP180;54562;47.620;18.786;2023-03-05T17:12:30;97933.00;;;2.36
67758;BMP180;54562;47.620;18.786;2023-03-05T17:15:38;97932.00;;;2.30
67758;BMP180;54562;47.620;18.786;2023-03-05T17:18:46;97934.80;;;2.30
67758;BMP180;54562;47.620;18.786;2023-03-05T17:21:55;97937.60;;;2.20
67758;BMP180;54562;47.620;18.786;2023-03-05T17:25:03;97930.60;;;2.18
67758;BMP180;54562;47.620;18.786;2023-03-05T17:28:11;97927.80;;;2.10
67758;BMP180;54562;47.620;18.786;2023-03-05T17:31:20;97928.20;;;2.10
67758;BMP180;54562;47.620;18.786;2023-03-05T17:34:28;97932.00;;;2.04
67758;BMP180;54562;47.620;18.786;2023-03-05T17:37:42;97932.00;;;2.00
67758;BMP180;54562;47.620;18.786;2023-03-05T17:40:50;97940.60;;;2.00
67758;BMP180;54562;47.620;18.786;2023-03-05T17:43:58;97937.80;;;2.00
67758;BMP180;54562;47.620;18.786;2023-03-05T17:47:06;97936.40;;;1.98
67758;BMP180;54562;47.620;18.786;2023-03-05T17:50:15;97941.00;;;1.90
67758;BMP180;54562;47.620;18.786;2023-03-05T17:53:24;97940.40;;;1.90
67758;BMP180;54562;47.620;18.786;2023-03-05T17:56:34;97943.40;;;1.88
67758;BMP180;54562;47.620;18.786;2023-03-05T17:59:40;97947.80;;;1.82
67758;BMP180;54562;47.620;18.786;2023-03-05T18:02:51;97952.00;;;1.80
67758;BMP180;54562;47.620;18.786;2023-03-05T18:05:59;97951.40;;;1.80
67758;BMP180;54562;47.620;18.786;2023-03-05T18:09:08;97944.40;;;1.80
67758;BMP180;54562;47.620;18.786;2023-03-05T18:12:16;97937.60;;;1.80
67758;BMP180;54562;47.620;18.786;2023-03-05T18:15:26;97932.60;;;1.80
67758;BMP180;54562;47.620;18.786;2023-03-05T18:18:34;97929.80;;;1.80
67758;BMP180;54562;47.620;18.786;2023-03-05T18:21:43;97930.40;;;1.80
67758;BMP180;54562;47.620;18.786;2023-03-05T18:24:51;97929.20;;;1.80